Terminal Aerodrome Forecast
Issued by NWS Memphis, TN

Home | Current Version | Previous Version | Text Only | Print | Product List | Glossary On
Versions: 1 2 3 4 5 6 7 8 9 10 11 12 13 14 15 16 17 18 19 20 21 22 23
285
FTUS44 KMEG 301722
TAFJBR
TAF
KJBR 301722Z 3018/0118 19014G22KT P6SM VCSH SCT025 BKN060
     FM302000 20018G27KT P6SM BKN060 BKN100
     FM302300 21014G22KT P6SM SCT060 BKN150
     FM011400 22018G26KT P6SM BKN040 BKN250=

USA.gov is the U.S. government's official web portal to all federal, state and local government web resources and services.